METAR Data
IDs: Format: Raw Decoded Include TAF

Data at: 0901 UTC 26 Jan 2020

KETB 260855Z AUTO 28008G15KT 2 1/2SM -SN OVC007 00/00 A2985 RMK AO2
KETB 260835Z AUTO 28012KT 4SM -SN OVC007 00/00 A2984 RMK AO2
KETB 260815Z AUTO 28008KT 10SM OVC007 00/00 A2985 RMK AO2
KETB 260755Z AUTO 28008KT 10SM OVC009 00/00 A2985 RMK AO2
KETB 260735Z AUTO 29009G14KT 10SM OVC009 00/00 A2984 RMK AO2
KETB 260715Z AUTO 29008KT 10SM OVC011 00/00 A2984 RMK AO2
KETB 260655Z AUTO 28007KT 4SM -SN BKN007 OVC011 00/00 A2984 RMK AO2
KETB 260635Z AUTO 28007KT 5SM -SN OVC007 00/00 A2984 RMK AO2
KETB 260615Z AUTO 29009KT 7SM -SN OVC007 00/00 A2984 RMK AO2
KETB 260555Z AUTO 29010KT 10SM OVC005 00/00 A2984 RMK AO2
KETB 260535Z AUTO 28009KT 10SM OVC005 00/00 A2984 RMK AO2
KETB 260515Z AUTO 29007KT 7SM OVC005 00/00 A2983 RMK AO2
KETB 260455Z AUTO 29006KT 10SM OVC005 00/00 A2983 RMK AO2
KETB 260435Z AUTO 28006KT 10SM OVC007 01/00 A2983 RMK AO2
KETB 260415Z AUTO 28006KT 10SM OVC007 00/00 A2983 RMK AO2
KETB 260355Z AUTO 28006KT 10SM OVC007 00/00 A2983 RMK AO2
KETB 260335Z AUTO 29005KT 10SM OVC007 00/00 A2983 RMK AO2
KETB 260315Z AUTO 29007KT 10SM OVC007 00/00 A2983 RMK AO2
KETB 260255Z AUTO 29006KT 10SM OVC007 00/00 A2983 RMK AO2
KETB 260235Z AUTO 28005KT 10SM OVC007 00/00 A2983 RMK AO2
KETB 260215Z AUTO 28004KT 10SM OVC007 00/00 A2983 RMK AO2
KETB 260155Z AUTO 28005KT 10SM OVC007 00/00 A2983 RMK AO2
KETB 260135Z AUTO 29006KT 10SM OVC009 00/00 A2982 RMK AO2
KETB 260115Z AUTO 30006KT 10SM OVC009 00/00 A2982 RMK AO2
KETB 260055Z AUTO 30006KT 10SM OVC007 00/00 A2982 RMK AO2
KETB 260035Z AUTO 29005KT 10SM OVC007 00/00 A2982 RMK AO2
KETB 260015Z AUTO 30006KT 10SM OVC005 00/00 A2982 RMK AO2
KETB 252355Z AUTO 31007KT 10SM OVC005 00/00 A2981 RMK AO2
KETB 252335Z AUTO 30006KT 10SM OVC005 00/00 A2981 RMK AO2
KETB 252315Z AUTO 32007KT 10SM OVC007 00/00 A2980 RMK AO2
KETB 252255Z AUTO 32005KT 10SM OVC007 00/00 A2980 RMK AO2
KETB 252235Z AUTO 32007KT 10SM OVC007 00/00 A2979 RMK AO2
KETB 252215Z AUTO 30006KT 10SM OVC007 00/00 A2979 RMK AO2
KETB 252155Z AUTO 30007KT 10SM OVC007 00/00 A2979 RMK AO2
KETB 252135Z AUTO 31008KT 10SM OVC007 00/00 A2979 RMK AO2
KETB 252115Z AUTO 31009KT 10SM OVC007 00/00 A2978 RMK AO2
KETB 252055Z AUTO 30006KT 10SM OVC007 00/00 A2978 RMK AO2
KETB 252035Z AUTO 30007KT 10SM OVC007 00/00 A2978 RMK AO2
KETB 252015Z AUTO 29006KT 10SM OVC007 00/00 A2977 RMK AO2
KETB 251955Z AUTO 30009KT 10SM OVC007 00/00 A2977 RMK AO2
KETB 251935Z AUTO 30008KT 10SM OVC007 00/00 A2977 RMK AO2
KETB 251915Z AUTO 31006KT 7SM OVC009 00/00 A2977 RMK AO2
KETB 251855Z AUTO 29007KT 10SM OVC009 00/00 A2976 RMK AO2
KETB 251835Z AUTO 30007KT 10SM OVC009 00/00 A2977 RMK AO2
KETB 251815Z AUTO 30007KT 10SM OVC009 00/00 A2977 RMK AO2
KETB 251755Z AUTO 32008KT 10SM OVC009 00/00 A2977 RMK AO2
KETB 251735Z AUTO 30005KT 10SM OVC009 00/00 A2978 RMK AO2
KETB 251715Z AUTO 29007KT 10SM OVC009 00/00 A2978 RMK AO2
KETB 251655Z AUTO 31004KT 10SM OVC007 00/00 A2978 RMK AO2
KETB 251635Z AUTO 31005KT 10SM -SN OVC007 00/00 A2978 RMK AO2
KETB 251615Z AUTO 31004KT 5SM -SN OVC007 00/00 A2978 RMK AO2
KETB 251555Z AUTO 31004KT 7SM -SN OVC007 00/00 A2978 RMK AO2
KETB 251535Z AUTO 31003KT 4SM -SN OVC007 00/00 A2977 RMK AO2
KETB 251515Z AUTO 30003KT 3SM -SN OVC007 00/00 A2976 RMK AO2
KETB 251455Z AUTO 30003KT 4SM -SN OVC007 00/00 A2976 RMK AO2
KETB 251435Z AUTO 30003KT 1 3/4SM -SN OVC005 00/00 A2976 RMK AO2
KETB 251415Z AUTO 31004KT 1 3/4SM -SN OVC005 00/00 A2977 RMK AO2
KETB 251355Z AUTO 30003KT 1 1/4SM -SN OVC005 00/00 A2976 RMK AO2
KETB 251335Z AUTO 00000KT 1 1/2SM -SN OVC005 00/00 A2976 RMK AO2
KETB 251315Z AUTO 00000KT 4SM -SN OVC005 00/00 A2976 RMK AO2
KETB 251255Z AUTO 30003KT 4SM -SN OVC005 00/00 A2975 RMK AO2
KETB 251235Z AUTO 29003KT 3SM -SN OVC005 00/00 A2975 RMK AO2
KETB 251215Z AUTO 30003KT 2SM -SN OVC005 00/00 A2973 RMK AO2
KETB 251155Z AUTO 00000KT 3SM -SN BKN005 BKN008 OVC050 00/00 A2973 RMK AO2
KETB 251135Z AUTO 29003KT 5SM BR SCT005 BKN034 OVC050 00/00 A2973 RMK AO2
KETB 251115Z AUTO 30003KT 5SM -SN BKN005 OVC050 00/00 A2973 RMK AO2
KETB 251055Z AUTO 00000KT 2 1/2SM -SN OVC005 00/00 A2973 RMK AO2
KETB 251035Z AUTO 00000KT 2SM -SN OVC005 00/00 A2973 RMK AO2
KETB 251015Z AUTO 29003KT 5SM BR OVC005 00/00 A2973 RMK AO2
KETB 250955Z AUTO 29003KT 4SM BR OVC005 00/00 A2973 RMK AO2
KETB 250935Z AUTO 00000KT 3SM -SN BKN005 OVC009 00/00 A2973 RMK AO2
KETB 250855Z AUTO 00000KT 2 1/2SM -SN OVC009 00/00 A2973 RMK AO2
KETB 250835Z AUTO 00000KT 3SM -SN OVC007 00/00 A2974 RMK AO2
KETB 250815Z AUTO 00000KT 3SM -SN BKN007 OVC012 00/00 A2975 RMK AO2
KETB 250755Z AUTO 00000KT 3SM -SN OVC010 00/00 A2975 RMK AO2
KETB 250735Z AUTO 00000KT 4SM -SN BKN008 OVC013 00/00 A2975 RMK AO2
KETB 250715Z AUTO 00000KT 3SM -SN OVC008 00/00 A2974 RMK AO2
KETB 250655Z AUTO 00000KT 4SM -SN OVC008 00/00 A2975 RMK AO2 P0001
KETB 250635Z AUTO 00000KT 2 1/2SM -SN OVC006 00/00 A2975 RMK AO2 P0001
KETB 250615Z AUTO 00000KT 1 3/4SM -SN OVC006 00/00 A2975 RMK AO2 P0001
KETB 250555Z AUTO 00000KT 1 1/2SM -SN OVC006 00/00 A2975 RMK AO2
KETB 250535Z AUTO 33003KT 1 3/4SM -SN OVC006 00/00 A2975 RMK AO2
KETB 250515Z AUTO 00000KT 2SM -SN BKN006 OVC022 00/00 A2976 RMK AO2
KETB 250455Z AUTO 00000KT 1 3/4SM -SN OVC004 00/00 A2976 RMK AO2 P0001
KETB 250435Z AUTO 00000KT 2SM -SN OVC004 00/00 A2977 RMK AO2 P0001
KETB 250415Z AUTO 00000KT 1 1/2SM -SN OVC004 00/00 A2977 RMK AO2
KETB 250355Z AUTO 00000KT 1 3/4SM -SN OVC004 00/00 A2978 RMK AO2 P0001
KETB 250335Z AUTO 00000KT 2SM -SN OVC004 00/00 A2979 RMK AO2
KETB 250315Z AUTO 00000KT 2 1/2SM -SN OVC004 00/00 A2979 RMK AO2
KETB 250255Z AUTO 00000KT 2SM -SN OVC004 00/00 A2979 RMK AO2
KETB 250235Z AUTO 00000KT 2 1/2SM -SN OVC004 00/00 A2979 RMK AO2
KETB 250215Z AUTO 00000KT 2SM -SN OVC004 00/00 A2979 RMK AO2
KETB 250155Z AUTO 00000KT 1 1/2SM -SN OVC004 00/00 A2980 RMK AO2 P0002
KETB 250135Z AUTO 00000KT 1 1/2SM -SN OVC004 00/00 A2980 RMK AO2 P0001
KETB 250115Z AUTO 00000KT 2SM -SN OVC004 00/00 A2980 RMK AO2
KETB 250055Z AUTO 00000KT 2SM -SN OVC004 00/00 A2980 RMK AO2 P0002
KETB 250035Z AUTO 36003KT 1 3/4SM -SN OVC002 00/00 A2980 RMK AO2 P0001
KETB 250015Z AUTO 00000KT 1 1/2SM -SN OVC002 00/00 A2981 RMK AO2 P0001
KETB 242355Z AUTO 00000KT 1 1/4SM -SN OVC002 00/00 A2981 RMK AO2 P0003
KETB 242335Z AUTO 04003KT 1 3/4SM -SN OVC002 00/00 A2981 RMK AO2 P0001
KETB 242315Z AUTO 05004KT 1 1/4SM -SN OVC002 00/00 A2982 RMK AO2
KETB 242255Z AUTO 06005KT 1 3/4SM -SN OVC002 00/00 A2982 RMK AO2 P0001
KETB 242235Z AUTO 06003KT 2 1/2SM RA OVC002 00/00 A2982 RMK AO2
KETB 242215Z AUTO 08006KT 3SM -RA OVC002 01/01 A2982 RMK AO2
KETB 242155Z AUTO 07005KT 2SM DZ OVC002 01/01 A2981 RMK AO2
KETB 242135Z AUTO 07006KT 2 1/2SM -RA OVC002 01/01 A2981 RMK AO2
KETB 242115Z AUTO 07006KT 2SM DZ OVC002 01/01 A2982 RMK AO2